Time,TemperatureF,DewpointF,PressureIn,WindDirection,WindDirectionDegrees,WindSpeedMPH,WindSpeedGustMPH,Humidity,HourlyPrecipIn,Conditions,Clouds,dailyrainin,SolarRadiationWatts/m^2,SoftwareType,DateUTC
2013-09-20 00:03:00,69.0,67.0,-100.00,South,185,2.0,4.0,93,0.00,,,0.00,0.000000,,2013-09-20 05:03:00,
2013-09-20 00:43:00,70.0,67.0,-100.00,South,188,3.0,6.0,89,0.00,,,0.00,0.000000,,2013-09-20 05:43:00,
2013-09-20 00:53:00,70.0,67.0,-100.00,South,188,3.0,6.0,89,0.00,,,0.00,0.000000,,2013-09-20 05:53:00,
2013-09-20 01:03:00,70.0,67.0,-100.00,South,188,3.0,6.0,89,0.00,,,0.00,0.000000,,2013-09-20 06:03:00,
2013-09-20 01:42:00,69.0,66.0,-100.00,South,181,3.0,5.0,89,0.00,,,0.00,0.000000,,2013-09-20 06:42:00,
2013-09-20 01:52:00,69.0,66.0,-100.00,South,181,3.0,5.0,89,0.00,,,0.00,0.000000,,2013-09-20 06:52:00,
2013-09-20 02:02:00,69.0,66.0,-100.00,South,181,3.0,5.0,89,0.00,,,0.00,0.000000,,2013-09-20 07:02:00,
2013-09-20 02:42:00,69.0,67.0,-100.00,South,178,2.0,5.0,93,0.00,,,0.00,0.000000,,2013-09-20 07:42:00,
2013-09-20 02:53:00,69.0,67.0,-100.00,South,178,2.0,5.0,93,0.00,,,0.00,0.000000,,2013-09-20 07:53:00,
2013-09-20 03:02:00,69.0,67.0,-100.00,South,178,2.0,5.0,93,0.00,,,0.00,0.000000,,2013-09-20 08:02:00,
2013-09-20 03:42:00,67.0,66.0,-100.00,SE,139,1.0,4.0,97,0.00,,,0.00,0.000000,,2013-09-20 08:42:00,
2013-09-20 03:52:00,67.0,66.0,-100.00,SE,139,1.0,4.0,97,0.00,,,0.00,0.000000,,2013-09-20 08:52:00,
2013-09-20 04:01:00,67.0,66.0,-100.00,SE,139,1.0,4.0,97,0.00,,,0.00,0.000000,,2013-09-20 09:01:00,
2013-09-20 04:44:00,67.0,66.0,-100.00,South,177,2.0,4.0,98,0.00,,,0.00,0.000000,,2013-09-20 09:44:00,
2013-09-20 04:53:00,67.0,66.0,-100.00,South,177,2.0,4.0,98,0.00,,,0.00,0.000000,,2013-09-20 09:53:00,
2013-09-20 05:03:00,67.0,66.0,-100.00,South,177,2.0,4.0,98,0.00,,,0.00,0.000000,,2013-09-20 10:03:00,
2013-09-20 05:42:00,67.0,66.0,-100.00,SSW,192,2.0,4.0,98,0.00,,,0.00,0.000000,,2013-09-20 10:42:00,
2013-09-20 05:53:00,67.0,66.0,-100.00,SSW,192,2.0,4.0,98,0.00,,,0.00,0.000000,,2013-09-20 10:53:00,
2013-09-20 06:03:00,67.0,66.0,-100.00,SSW,192,2.0,4.0,98,0.00,,,0.00,0.000000,,2013-09-20 11:03:00,
2013-09-20 06:42:00,66.0,65.0,-100.00,SSE,155,2.0,5.0,96,0.00,,,0.00,0.000000,,2013-09-20 11:42:00,
2013-09-20 06:52:00,66.0,65.0,-100.00,SSE,155,2.0,5.0,96,0.00,,,0.00,0.000000,,2013-09-20 11:52:00,
2013-09-20 07:02:00,66.0,65.0,-100.00,SSE,155,2.0,5.0,96,0.00,,,0.00,0.000000,,2013-09-20 12:02:00,
2013-09-20 07:43:00,66.0,65.0,-100.00,South,175,2.0,5.0,98,0.00,,,0.00,6.000000,,2013-09-20 12:43:00,
2013-09-20 07:52:00,66.0,65.0,-100.00,South,175,2.0,5.0,98,0.00,,,0.00,6.000000,,2013-09-20 12:52:00,
2013-09-20 08:02:00,66.0,65.0,-100.00,South,175,2.0,5.0,98,0.00,,,0.00,6.000000,,2013-09-20 13:02:00,
2013-09-20 08:42:00,69.0,67.0,-100.00,South,181,4.0,7.0,93,0.00,,,0.00,43.000000,,2013-09-20 13:42:00,
2013-09-20 08:52:00,69.0,67.0,-100.00,South,181,4.0,7.0,93,0.00,,,0.00,43.000000,,2013-09-20 13:52:00,
2013-09-20 09:02:00,69.0,67.0,-100.00,South,181,4.0,7.0,93,0.00,,,0.00,43.000000,,2013-09-20 14:02:00,
2013-09-20 09:42:00,73.0,66.0,-100.00,SSW,208,4.0,9.0,78,0.00,,,0.00,125.000000,,2013-09-20 14:42:00,
2013-09-20 09:52:00,73.0,66.0,-100.00,SSW,208,4.0,9.0,78,0.00,,,0.00,125.000000,,2013-09-20 14:52:00,
2013-09-20 10:02:00,73.0,66.0,-100.00,SSW,208,4.0,9.0,78,0.00,,,0.00,125.000000,,2013-09-20 15:02:00,
2013-09-20 10:44:00,79.0,67.0,-100.00,SSW,202,5.0,11.0,67,0.00,,,0.00,453.000000,,2013-09-20 15:44:00,
2013-09-20 10:54:00,79.0,67.0,-100.00,SSW,202,5.0,11.0,67,0.00,,,0.00,453.000000,,2013-09-20 15:54:00,
2013-09-20 11:04:00,79.0,67.0,-100.00,SSW,202,5.0,11.0,67,0.00,,,0.00,453.000000,,2013-09-20 16:04:00,
2013-09-20 11:43:00,83.0,68.0,-100.00,SW,214,5.0,11.0,61,0.00,,,0.00,567.000000,,2013-09-20 16:43:00,
2013-09-20 11:53:00,83.0,68.0,-100.00,SW,214,5.0,11.0,61,0.00,,,0.00,567.000000,,2013-09-20 16:53:00,
2013-09-20 12:03:00,83.0,68.0,-100.00,SW,214,5.0,11.0,61,0.00,,,0.00,567.000000,,2013-09-20 17:03:00,
2013-09-20 12:43:00,83.0,67.0,-100.00,SSW,198,5.0,10.0,58,0.00,,,0.00,601.000000,,2013-09-20 17:43:00,
2013-09-20 12:53:00,83.0,67.0,-100.00,SSW,198,5.0,10.0,58,0.00,,,0.00,601.000000,,2013-09-20 17:53:00,
2013-09-20 13:02:00,83.0,67.0,-100.00,SSW,198,5.0,10.0,58,0.00,,,0.00,601.000000,,2013-09-20 18:02:00,
2013-09-20 13:42:00,83.0,66.0,-100.00,SW,220,4.0,11.0,57,0.00,,,0.00,508.000000,,2013-09-20 18:42:00,
2013-09-20 13:52:00,83.0,66.0,-100.00,SW,220,4.0,11.0,57,0.00,,,0.00,508.000000,,2013-09-20 18:52:00,
2013-09-20 14:02:00,83.0,66.0,-100.00,SW,220,4.0,11.0,57,0.00,,,0.00,508.000000,,2013-09-20 19:02:00,
2013-09-20 14:42:00,86.0,66.0,-100.00,South,187,3.0,10.0,52,0.00,,,0.00,623.000000,,2013-09-20 19:42:00,
2013-09-20 14:53:00,86.0,66.0,-100.00,South,187,3.0,10.0,52,0.00,,,0.00,623.000000,,2013-09-20 19:53:00,
2013-09-20 15:03:00,86.0,66.0,-100.00,South,187,3.0,10.0,52,0.00,,,0.00,623.000000,,2013-09-20 20:03:00,
2013-09-20 15:42:00,86.0,69.0,-100.00,SW,216,3.0,8.0,58,0.00,,,0.00,293.000000,,2013-09-20 20:42:00,
2013-09-20 15:52:00,86.0,69.0,-100.00,SW,216,3.0,8.0,58,0.00,,,0.00,293.000000,,2013-09-20 20:52:00,
2013-09-20 16:02:00,86.0,69.0,-100.00,SW,216,3.0,8.0,58,0.00,,,0.00,293.000000,,2013-09-20 21:02:00,
2013-09-20 16:45:00,82.0,67.0,-100.00,SE,128,1.0,7.0,61,0.00,,,-99.99,242.000000,,2013-09-20 21:45:00,
2013-09-20 16:55:00,82.0,67.0,-100.00,SE,128,1.0,7.0,61,0.00,,,-99.99,242.000000,,2013-09-20 21:55:00,
2013-09-20 17:04:00,82.0,67.0,-100.00,SE,128,1.0,7.0,61,0.00,,,-99.99,242.000000,,2013-09-20 22:04:00,
2013-09-20 17:44:00,79.0,68.0,-100.00,SSE,168,2.0,6.0,68,0.00,,,0.00,110.000000,,2013-09-20 22:44:00,
2013-09-20 17:53:00,79.0,68.0,-100.00,SSE,168,2.0,6.0,68,0.00,,,0.00,110.000000,,2013-09-20 22:53:00,
2013-09-20 18:02:00,79.0,68.0,-100.00,SSE,168,2.0,6.0,68,0.00,,,0.00,110.000000,,2013-09-20 23:02:00,
2013-09-20 18:42:00,76.0,67.0,-100.00,SW,232,1.0,4.0,75,0.00,,,0.00,38.000000,,2013-09-20 23:42:00,
2013-09-20 18:53:00,76.0,67.0,-100.00,SW,232,1.0,4.0,75,0.00,,,0.00,38.000000,,2013-09-20 23:53:00,
2013-09-20 19:02:00,76.0,67.0,-100.00,SW,232,1.0,4.0,75,0.00,,,0.00,38.000000,,2013-09-21 00:02:00,
2013-09-20 19:42:00,74.0,67.0,-100.00,South,184,0.0,4.0,80,0.00,,,0.00,3.000000,,2013-09-21 00:42:00,
2013-09-20 19:52:00,74.0,67.0,-100.00,South,184,0.0,4.0,80,0.00,,,0.00,3.000000,,2013-09-21 00:52:00,
2013-09-20 20:02:00,74.0,67.0,-100.00,South,184,0.0,4.0,80,0.00,,,0.00,3.000000,,2013-09-21 01:02:00,
2013-09-20 20:42:00,73.0,68.0,-100.00,SSE,164,1.0,2.0,85,0.00,,,0.00,0.000000,,2013-09-21 01:42:00,
2013-09-20 20:52:00,73.0,68.0,-100.00,SSE,164,1.0,2.0,85,0.00,,,0.00,0.000000,,2013-09-21 01:52:00,
2013-09-20 21:02:00,73.0,68.0,-100.00,SSE,164,1.0,2.0,85,0.00,,,0.00,0.000000,,2013-09-21 02:02:00,
2013-09-20 21:42:00,71.0,70.0,-100.00,East,96,0.0,1.0,96,0.00,,,0.00,0.000000,,2013-09-21 02:42:00,
2013-09-20 21:52:00,71.0,70.0,-100.00,East,96,0.0,1.0,96,0.00,,,0.00,0.000000,,2013-09-21 02:52:00,
2013-09-20 22:02:00,71.0,70.0,-100.00,East,96,0.0,1.0,96,0.00,,,0.00,0.000000,,2013-09-21 03:02:00,
2013-09-20 22:44:00,70.0,70.0,-100.00,SSW,195,1.0,4.0,100,0.01,,,0.01,0.000000,,2013-09-21 03:44:00,
2013-09-20 22:55:00,70.0,70.0,-100.00,SSW,195,1.0,4.0,100,0.01,,,0.01,0.000000,,2013-09-21 03:55:00,
2013-09-20 23:04:00,70.0,70.0,-100.00,SSW,195,1.0,4.0,100,0.01,,,0.01,0.000000,,2013-09-21 04:04:00,
2013-09-20 23:43:00,70.0,69.0,-100.00,SSW,203,2.0,8.0,96,0.00,,,0.01,0.000000,,2013-09-21 04:43:00,
2013-09-20 23:54:00,70.0,69.0,-100.00,SSW,203,2.0,8.0,96,0.00,,,0.01,0.000000,,2013-09-21 04:54:00,